sensor_id;sensor_type;location;lat;lon;timestamp;temperature;humidity
49222;DHT22;35047;37.588;-122.048;2022-10-15T00:00:45;26.80;66.30
49222;DHT22;35047;37.588;-122.048;2022-10-15T00:03:13;26.80;66.20
49222;DHT22;35047;37.588;-122.048;2022-10-15T00:05:43;26.60;66.60
49222;DHT22;35047;37.588;-122.048;2022-10-15T00:08:10;26.60;66.60
49222;DHT22;35047;37.588;-122.048;2022-10-15T00:10:37;26.60;66.80
49222;DHT22;35047;37.588;-122.048;2022-10-15T00:13:05;26.50;67.00
49222;DHT22;35047;37.588;-122.048;2022-10-15T00:15:35;26.50;67.50
49222;DHT22;35047;37.588;-122.048;2022-10-15T00:18:03;26.40;67.60
49222;DHT22;35047;37.588;-122.048;2022-10-15T00:20:30;26.20;67.60
49222;DHT22;35047;37.588;-122.048;2022-10-15T00:22:57;26.20;67.40
49222;DHT22;35047;37.588;-122.048;2022-10-15T00:25:23;26.20;68.00
49222;DHT22;35047;37.588;-122.048;2022-10-15T00:27:50;26.00;68.40
49222;DHT22;35047;37.588;-122.048;2022-10-15T00:30:17;26.10;68.40
49222;DHT22;35047;37.588;-122.048;2022-10-15T00:32:43;26.00;68.50
49222;DHT22;35047;37.588;-122.048;2022-10-15T00:35:10;25.90;68.40
49222;DHT22;35047;37.588;-122.048;2022-10-15T00:37:36;25.90;68.60
49222;DHT22;35047;37.588;-122.048;2022-10-15T00:40:03;25.80;68.70
49222;DHT22;35047;37.588;-122.048;2022-10-15T00:42:30;25.60;68.00
49222;DHT22;35047;37.588;-122.048;2022-10-15T00:44:58;25.50;68.30
49222;DHT22;35047;37.588;-122.048;2022-10-15T00:47:42;25.60;68.70
49222;DHT22;35047;37.588;-122.048;2022-10-15T00:50:19;25.50;68.70
49222;DHT22;35047;37.588;-122.048;2022-10-15T00:53:01;25.50;68.70
49222;DHT22;35047;37.588;-122.048;2022-10-15T00:55:40;25.30;68.90
49222;DHT22;35047;37.588;-122.048;2022-10-15T00:58:10;25.20;69.40
49222;DHT22;35047;37.588;-122.048;2022-10-15T01:00:39;25.10;69.30
49222;DHT22;35047;37.588;-122.048;2022-10-15T01:03:08;25.20;69.10
49222;DHT22;35047;37.588;-122.048;2022-10-15T01:05:37;25.00;69.40
49222;DHT22;35047;37.588;-122.048;2022-10-15T01:08:04;24.80;70.30
49222;DHT22;35047;37.588;-122.048;2022-10-15T01:10:43;24.70;71.10
49222;DHT22;35047;37.588;-122.048;2022-10-15T01:15:56;24.50;71.70
49222;DHT22;35047;37.588;-122.048;2022-10-15T01:18:32;24.40;72.00
49222;DHT22;35047;37.588;-122.048;2022-10-15T01:21:24;24.30;72.20
49222;DHT22;35047;37.588;-122.048;2022-10-15T01:27:04;24.00;72.90
49222;DHT22;35047;37.588;-122.048;2022-10-15T01:32:29;23.80;73.20
49222;DHT22;35047;37.588;-122.048;2022-10-15T01:41:13;23.50;74.30
49222;DHT22;35047;37.588;-122.048;2022-10-15T01:43:50;23.40;74.70
49222;DHT22;35047;37.588;-122.048;2022-10-15T01:46:56;23.30;74.60
49222;DHT22;35047;37.588;-122.048;2022-10-15T01:49:30;23.20;75.00
49222;DHT22;35047;37.588;-122.048;2022-10-15T01:51:58;23.10;75.20
49222;DHT22;35047;37.588;-122.048;2022-10-15T01:54:27;23.00;76.10
49222;DHT22;35047;37.588;-122.048;2022-10-15T01:56:54;23.00;75.80
49222;DHT22;35047;37.588;-122.048;2022-10-15T01:59:27;22.90;76.30
49222;DHT22;35047;37.588;-122.048;2022-10-15T02:01:55;22.80;76.80
49222;DHT22;35047;37.588;-122.048;2022-10-15T02:04:29;22.60;77.10
49222;DHT22;35047;37.588;-122.048;2022-10-15T02:07:04;22.60;77.80
49222;DHT22;35047;37.588;-122.048;2022-10-15T02:10:05;22.40;78.20
49222;DHT22;35047;37.588;-122.048;2022-10-15T02:13:00;22.30;78.10
49222;DHT22;35047;37.588;-122.048;2022-10-15T02:21:31;20.10;85.50
49222;DHT22;35047;37.588;-122.048;2022-10-15T02:24:18;19.30;90.30
49222;DHT22;35047;37.588;-122.048;2022-10-15T02:26:46;18.70;92.30
49222;DHT22;35047;37.588;-122.048;2022-10-15T02:29:17;18.20;92.30
49222;DHT22;35047;37.588;-122.048;2022-10-15T02:31:46;18.00;93.40
49222;DHT22;35047;37.588;-122.048;2022-10-15T02:34:18;17.90;94.00
49222;DHT22;35047;37.588;-122.048;2022-10-15T02:36:46;17.80;94.80
49222;DHT22;35047;37.588;-122.048;2022-10-15T02:39:17;17.70;94.70
49222;DHT22;35047;37.588;-122.048;2022-10-15T02:41:46;17.70;95.30
49222;DHT22;35047;37.588;-122.048;2022-10-15T02:44:14;17.70;95.10
49222;DHT22;35047;37.588;-122.048;2022-10-15T02:46:41;17.50;95.40
49222;DHT22;35047;37.588;-122.048;2022-10-15T02:49:08;17.60;96.60
49222;DHT22;35047;37.588;-122.048;2022-10-15T02:51:35;17.60;95.80
49222;DHT22;35047;37.588;-122.048;2022-10-15T02:54:02;17.30;96.50
49222;DHT22;35047;37.588;-122.048;2022-10-15T02:56:29;17.20;97.30
49222;DHT22;35047;37.588;-122.048;2022-10-15T02:58:56;17.10;97.60
49222;DHT22;35047;37.588;-122.048;2022-10-15T03:01:23;17.10;97.20
49222;DHT22;35047;37.588;-122.048;2022-10-15T03:03:50;17.10;97.10
49222;DHT22;35047;37.588;-122.048;2022-10-15T03:06:16;17.10;97.40
49222;DHT22;35047;37.588;-122.048;2022-10-15T03:08:43;16.90;97.70
49222;DHT22;35047;37.588;-122.048;2022-10-15T03:11:10;16.60;98.30
49222;DHT22;35047;37.588;-122.048;2022-10-15T03:13:38;16.50;99.00
49222;DHT22;35047;37.588;-122.048;2022-10-15T03:16:07;16.30;99.60
49222;DHT22;35047;37.588;-122.048;2022-10-15T03:18:34;16.40;99.90
49222;DHT22;35047;37.588;-122.048;2022-10-15T03:21:01;16.30;99.50
49222;DHT22;35047;37.588;-122.048;2022-10-15T03:23:29;16.10;99.90
49222;DHT22;35047;37.588;-122.048;2022-10-15T03:25:56;16.00;99.90
49222;DHT22;35047;37.588;-122.048;2022-10-15T03:28:22;16.00;99.90
49222;DHT22;35047;37.588;-122.048;2022-10-15T03:30:49;16.10;99.90
49222;DHT22;35047;37.588;-122.048;2022-10-15T03:33:16;16.10;99.90
49222;DHT22;35047;37.588;-122.048;2022-10-15T03:35:42;16.20;99.90
49222;DHT22;35047;37.588;-122.048;2022-10-15T03:38:10;16.10;99.90
49222;DHT22;35047;37.588;-122.048;2022-10-15T03:40:36;16.10;99.90
49222;DHT22;35047;37.588;-122.048;2022-10-15T03:43:03;16.10;99.90
49222;DHT22;35047;37.588;-122.048;2022-10-15T03:45:30;16.10;99.90
49222;DHT22;35047;37.588;-122.048;2022-10-15T03:47:58;16.10;99.90
49222;DHT22;35047;37.588;-122.048;2022-10-15T03:50:24;16.20;99.90
49222;DHT22;35047;37.588;-122.048;2022-10-15T03:52:51;16.30;99.90
49222;DHT22;35047;37.588;-122.048;2022-10-15T03:55:17;16.30;99.90
49222;DHT22;35047;37.588;-122.048;2022-10-15T03:57:45;16.40;99.90
49222;DHT22;35047;37.588;-122.048;2022-10-15T04:00:12;16.50;99.90
49222;DHT22;35047;37.588;-122.048;2022-10-15T04:02:39;16.50;99.90
49222;DHT22;35047;37.588;-122.048;2022-10-15T04:05:06;16.60;99.90
49222;DHT22;35047;37.588;-122.048;2022-10-15T04:07:33;16.60;99.90
49222;DHT22;35047;37.588;-122.048;2022-10-15T04:09:59;16.70;99.90
49222;DHT22;35047;37.588;-122.048;2022-10-15T04:12:26;16.90;99.90
49222;DHT22;35047;37.588;-122.048;2022-10-15T04:14:52;17.00;99.60
49222;DHT22;35047;37.588;-122.048;2022-10-15T04:17:20;16.90;99.60
49222;DHT22;35047;37.588;-122.048;2022-10-15T04:19:46;16.80;99.70
49222;DHT22;35047;37.588;-122.048;2022-10-15T04:22:13;16.90;99.30
49222;DHT22;35047;37.588;-122.048;2022-10-15T04:24:40;17.00;99.90
49222;DHT22;35047;37.588;-122.048;2022-10-15T04:27:06;17.10;99.70
49222;DHT22;35047;37.588;-122.048;2022-10-15T04:29:33;17.30;99.50
49222;DHT22;35047;37.588;-122.048;2022-10-15T04:32:00;17.50;99.00
49222;DHT22;35047;37.588;-122.048;2022-10-15T04:34:26;17.60;98.50
49222;DHT22;35047;37.588;-122.048;2022-10-15T04:36:53;17.80;97.70
49222;DHT22;35047;37.588;-122.048;2022-10-15T04:39:20;18.00;97.60
49222;DHT22;35047;37.588;-122.048;2022-10-15T04:41:47;18.10;97.50
49222;DHT22;35047;37.588;-122.048;2022-10-15T04:44:14;18.20;96.70
49222;DHT22;35047;37.588;-122.048;2022-10-15T04:46:41;18.10;96.60
49222;DHT22;35047;37.588;-122.048;2022-10-15T04:49:08;18.20;96.80
49222;DHT22;35047;37.588;-122.048;2022-10-15T04:51:34;18.20;96.50
49222;DHT22;35047;37.588;-122.048;2022-10-15T04:54:01;18.30;96.90
49222;DHT22;35047;37.588;-122.048;2022-10-15T04:56:27;18.40;96.00
49222;DHT22;35047;37.588;-122.048;2022-10-15T04:58:54;18.60;95.70
49222;DHT22;35047;37.588;-122.048;2022-10-15T05:01:21;18.50;95.60
49222;DHT22;35047;37.588;-122.048;2022-10-15T05:03:48;18.40;95.80
49222;DHT22;35047;37.588;-122.048;2022-10-15T05:06:17;18.40;96.00
49222;DHT22;35047;37.588;-122.048;2022-10-15T05:08:50;18.40;96.00
49222;DHT22;35047;37.588;-122.048;2022-10-15T05:11:25;18.40;95.60
49222;DHT22;35047;37.588;-122.048;2022-10-15T05:13:54;18.60;96.20
49222;DHT22;35047;37.588;-122.048;2022-10-15T05:16:23;18.60;95.80
49222;DHT22;35047;37.588;-122.048;2022-10-15T05:18:54;18.80;95.60
49222;DHT22;35047;37.588;-122.048;2022-10-15T05:21:20;18.80;95.40
49222;DHT22;35047;37.588;-122.048;2022-10-15T05:23:48;18.80;95.50
49222;DHT22;35047;37.588;-122.048;2022-10-15T05:26:18;18.90;94.90
49222;DHT22;35047;37.588;-122.048;2022-10-15T05:28:46;19.10;95.60
49222;DHT22;35047;37.588;-122.048;2022-10-15T05:31:20;19.10;94.60
49222;DHT22;35047;37.588;-122.048;2022-10-15T05:33:51;19.10;95.10
49222;DHT22;35047;37.588;-122.048;2022-10-15T05:36:26;19.30;94.80
49222;DHT22;35047;37.588;-122.048;2022-10-15T05:38:57;19.40;94.90
49222;DHT22;35047;37.588;-122.048;2022-10-15T05:41:25;19.20;95.00
49222;DHT22;35047;37.588;-122.048;2022-10-15T05:43:54;19.10;95.00
49222;DHT22;35047;37.588;-122.048;2022-10-15T05:46:21;19.20;95.10
49222;DHT22;35047;37.588;-122.048;2022-10-15T05:48:56;19.30;95.10
49222;DHT22;35047;37.588;-122.048;2022-10-15T05:51:24;19.20;94.90
49222;DHT22;35047;37.588;-122.048;2022-10-15T05:53:58;19.20;95.20
49222;DHT22;35047;37.588;-122.048;2022-10-15T05:56:25;19.40;94.90
49222;DHT22;35047;37.588;-122.048;2022-10-15T05:58:52;19.30;94.80
49222;DHT22;35047;37.588;-122.048;2022-10-15T06:01:20;19.30;95.20
49222;DHT22;35047;37.588;-122.048;2022-10-15T06:03:48;19.30;94.50
49222;DHT22;35047;37.588;-122.048;2022-10-15T06:06:20;19.30;94.40
49222;DHT22;35047;37.588;-122.048;2022-10-15T06:08:47;19.30;94.60
49222;DHT22;35047;37.588;-122.048;2022-10-15T06:11:14;19.30;94.40
49222;DHT22;35047;37.588;-122.048;2022-10-15T06:13:42;19.30;94.30
49222;DHT22;35047;37.588;-122.048;2022-10-15T06:16:09;19.30;94.50
49222;DHT22;35047;37.588;-122.048;2022-10-15T06:18:38;19.30;94.40
49222;DHT22;35047;37.588;-122.048;2022-10-15T06:21:05;19.30;94.30
49222;DHT22;35047;37.588;-122.048;2022-10-15T06:23:34;19.30;94.90
49222;DHT22;35047;37.588;-122.048;2022-10-15T06:26:05;19.30;94.70
49222;DHT22;35047;37.588;-122.048;2022-10-15T06:28:32;19.30;93.90
49222;DHT22;35047;37.588;-122.048;2022-10-15T06:31:00;19.10;94.50
49222;DHT22;35047;37.588;-122.048;2022-10-15T06:33:26;19.30;94.80
49222;DHT22;35047;37.588;-122.048;2022-10-15T06:35:53;19.30;94.50
49222;DHT22;35047;37.588;-122.048;2022-10-15T06:38:21;19.10;94.60
49222;DHT22;35047;37.588;-122.048;2022-10-15T06:40:48;19.00;94.80
49222;DHT22;35047;37.588;-122.048;2022-10-15T06:43:16;19.10;95.00
49222;DHT22;35047;37.588;-122.048;2022-10-15T06:45:42;18.90;95.00
49222;DHT22;35047;37.588;-122.048;2022-10-15T06:48:10;19.00;94.90
49222;DHT22;35047;37.588;-122.048;2022-10-15T06:50:38;19.10;95.30
49222;DHT22;35047;37.588;-122.048;2022-10-15T06:53:05;19.10;95.30
49222;DHT22;35047;37.588;-122.048;2022-10-15T06:55:32;19.10;95.30
49222;DHT22;35047;37.588;-122.048;2022-10-15T06:57:58;19.40;94.60
49222;DHT22;35047;37.588;-122.048;2022-10-15T07:00:26;19.60;94.20
49222;DHT22;35047;37.588;-122.048;2022-10-15T07:02:52;19.50;93.90
49222;DHT22;35047;37.588;-122.048;2022-10-15T07:05:19;19.40;94.70
49222;DHT22;35047;37.588;-122.048;2022-10-15T07:07:54;19.50;94.50
49222;DHT22;35047;37.588;-122.048;2022-10-15T07:10:22;19.50;93.90
49222;DHT22;35047;37.588;-122.048;2022-10-15T07:12:49;19.30;94.40
49222;DHT22;35047;37.588;-122.048;2022-10-15T07:15:16;19.40;94.90
49222;DHT22;35047;37.588;-122.048;2022-10-15T07:17:51;19.50;94.30
49222;DHT22;35047;37.588;-122.048;2022-10-15T07:20:19;19.70;94.50
49222;DHT22;35047;37.588;-122.048;2022-10-15T07:22:45;19.80;94.10
49222;DHT22;35047;37.588;-122.048;2022-10-15T07:25:13;19.70;94.40
49222;DHT22;35047;37.588;-122.048;2022-10-15T07:27:40;20.00;94.20
49222;DHT22;35047;37.588;-122.048;2022-10-15T07:30:07;20.10;93.60
49222;DHT22;35047;37.588;-122.048;2022-10-15T07:32:35;20.20;93.60
49222;DHT22;35047;37.588;-122.048;2022-10-15T07:35:01;20.00;93.60
49222;DHT22;35047;37.588;-122.048;2022-10-15T07:37:28;20.10;93.20
49222;DHT22;35047;37.588;-122.048;2022-10-15T07:39:55;20.00;92.80
49222;DHT22;35047;37.588;-122.048;2022-10-15T07:42:21;19.70;93.50
49222;DHT22;35047;37.588;-122.048;2022-10-15T07:44:48;19.60;94.20
49222;DHT22;35047;37.588;-122.048;2022-10-15T07:47:15;19.70;93.80
49222;DHT22;35047;37.588;-122.048;2022-10-15T07:49:42;19.50;93.60
49222;DHT22;35047;37.588;-122.048;2022-10-15T07:52:09;19.50;94.00
49222;DHT22;35047;37.588;-122.048;2022-10-15T07:54:35;19.40;94.10
49222;DHT22;35047;37.588;-122.048;2022-10-15T07:57:02;19.30;93.90
49222;DHT22;35047;37.588;-122.048;2022-10-15T07:59:28;19.30;94.40
49222;DHT22;35047;37.588;-122.048;2022-10-15T08:01:55;19.30;94.40
49222;DHT22;35047;37.588;-122.048;2022-10-15T08:04:22;19.30;94.10
49222;DHT22;35047;37.588;-122.048;2022-10-15T08:06:49;19.30;93.90
49222;DHT22;35047;37.588;-122.048;2022-10-15T08:09:17;19.40;94.10
49222;DHT22;35047;37.588;-122.048;2022-10-15T08:11:43;19.30;94.40
49222;DHT22;35047;37.588;-122.048;2022-10-15T08:14:10;19.40;93.90
49222;DHT22;35047;37.588;-122.048;2022-10-15T08:16:37;19.30;94.10
49222;DHT22;35047;37.588;-122.048;2022-10-15T08:19:03;19.30;94.40
49222;DHT22;35047;37.588;-122.048;2022-10-15T08:21:30;19.30;94.60
49222;DHT22;35047;37.588;-122.048;2022-10-15T08:23:57;19.30;94.00
49222;DHT22;35047;37.588;-122.048;2022-10-15T08:26:25;19.30;94.20
49222;DHT22;35047;37.588;-122.048;2022-10-15T08:28:52;19.30;94.40
49222;DHT22;35047;37.588;-122.048;2022-10-15T08:31:18;19.30;94.30
49222;DHT22;35047;37.588;-122.048;2022-10-15T08:33:45;19.30;94.30
49222;DHT22;35047;37.588;-122.048;2022-10-15T08:36:12;19.50;94.40
49222;DHT22;35047;37.588;-122.048;2022-10-15T08:38:38;19.40;93.70
49222;DHT22;35047;37.588;-122.048;2022-10-15T08:43:45;19.20;94.00
49222;DHT22;35047;37.588;-122.048;2022-10-15T08:46:22;19.20;94.20
49222;DHT22;35047;37.588;-122.048;2022-10-15T08:48:54;19.30;94.30
49222;DHT22;35047;37.588;-122.048;2022-10-15T08:51:24;19.40;94.10
49222;DHT22;35047;37.588;-122.048;2022-10-15T08:54:00;19.40;93.90
49222;DHT22;35047;37.588;-122.048;2022-10-15T08:56:33;19.50;94.20
49222;DHT22;35047;37.588;-122.048;2022-10-15T08:59:29;19.60;93.50
49222;DHT22;35047;37.588;-122.048;2022-10-15T09:04:52;19.40;93.40
49222;DHT22;35047;37.588;-122.048;2022-10-15T09:07:47;19.40;93.80
49222;DHT22;35047;37.588;-122.048;2022-10-15T09:10:26;19.70;93.20
49222;DHT22;35047;37.588;-122.048;2022-10-15T09:13:01;19.80;93.50
49222;DHT22;35047;37.588;-122.048;2022-10-15T09:15:35;19.70;93.30
49222;DHT22;35047;37.588;-122.048;2022-10-15T09:18:03;19.90;93.00
49222;DHT22;35047;37.588;-122.048;2022-10-15T09:20:34;19.80;93.50
49222;DHT22;35047;37.588;-122.048;2022-10-15T09:23:07;19.90;93.30
49222;DHT22;35047;37.588;-122.048;2022-10-15T09:25:41;19.90;92.90
49222;DHT22;35047;37.588;-122.048;2022-10-15T09:28:13;19.70;93.20
49222;DHT22;35047;37.588;-122.048;2022-10-15T09:30:50;19.90;93.20
49222;DHT22;35047;37.588;-122.048;2022-10-15T09:44:04;19.60;93.00
49222;DHT22;35047;37.588;-122.048;2022-10-15T09:46:45;19.70;93.50
49222;DHT22;35047;37.588;-122.048;2022-10-15T09:49:15;19.70;93.00
49222;DHT22;35047;37.588;-122.048;2022-10-15T09:54:29;19.60;93.20
49222;DHT22;35047;37.588;-122.048;2022-10-15T09:57:00;19.50;93.40
49222;DHT22;35047;37.588;-122.048;2022-10-15T09:59:26;19.50;93.50
49222;DHT22;35047;37.588;-122.048;2022-10-15T10:01:58;19.50;93.80
49222;DHT22;35047;37.588;-122.048;2022-10-15T10:04:28;19.70;93.70
49222;DHT22;35047;37.588;-122.048;2022-10-15T10:06:58;19.70;93.50
49222;DHT22;35047;37.588;-122.048;2022-10-15T10:09:33;19.80;93.30
49222;DHT22;35047;37.588;-122.048;2022-10-15T10:12:04;19.90;93.20
49222;DHT22;35047;37.588;-122.048;2022-10-15T10:14:35;20.10;93.00
49222;DHT22;35047;37.588;-122.048;2022-10-15T10:17:19;20.20;92.60
49222;DHT22;35047;37.588;-122.048;2022-10-15T10:25:28;19.80;92.80
49222;DHT22;35047;37.588;-122.048;2022-10-15T10:30:58;19.70;93.00
49222;DHT22;35047;37.588;-122.048;2022-10-15T10:33:33;19.50;93.40
49222;DHT22;35047;37.588;-122.048;2022-10-15T10:36:00;19.60;93.60
49222;DHT22;35047;37.588;-122.048;2022-10-15T10:38:36;19.60;93.60
49222;DHT22;35047;37.588;-122.048;2022-10-15T10:41:05;19.60;93.20
49222;DHT22;35047;37.588;-122.048;2022-10-15T10:43:39;19.70;93.50
49222;DHT22;35047;37.588;-122.048;2022-10-15T10:48:48;19.70;93.00
49222;DHT22;35047;37.588;-122.048;2022-10-15T10:51:18;19.70;93.80
49222;DHT22;35047;37.588;-122.048;2022-10-15T10:53:56;19.80;93.00
49222;DHT22;35047;37.588;-122.048;2022-10-15T10:56:43;19.70;93.20
49222;DHT22;35047;37.588;-122.048;2022-10-15T10:59:34;19.80;93.30
49222;DHT22;35047;37.588;-122.048;2022-10-15T11:02:02;19.70;93.30
49222;DHT22;35047;37.588;-122.048;2022-10-15T11:04:34;19.60;93.30
49222;DHT22;35047;37.588;-122.048;2022-10-15T11:07:23;19.40;93.80
49222;DHT22;35047;37.588;-122.048;2022-10-15T11:10:27;19.50;93.40
49222;DHT22;35047;37.588;-122.048;2022-10-15T11:13:26;19.50;93.60
49222;DHT22;35047;37.588;-122.048;2022-10-15T11:18:46;19.30;93.80
49222;DHT22;35047;37.588;-122.048;2022-10-15T11:38:16;19.20;94.60
49222;DHT22;35047;37.588;-122.048;2022-10-15T11:43:50;19.10;94.40
49222;DHT22;35047;37.588;-122.048;2022-10-15T11:46:34;19.30;94.20
49222;DHT22;35047;37.588;-122.048;2022-10-15T11:49:30;19.30;94.00
49222;DHT22;35047;37.588;-122.048;2022-10-15T11:54:46;19.20;94.50
49222;DHT22;35047;37.588;-122.048;2022-10-15T11:57:18;19.30;94.30
49222;DHT22;35047;37.588;-122.048;2022-10-15T12:00:11;19.30;94.30
49222;DHT22;35047;37.588;-122.048;2022-10-15T12:02:42;19.40;94.00
49222;DHT22;35047;37.588;-122.048;2022-10-15T12:05:17;19.30;94.10
49222;DHT22;35047;37.588;-122.048;2022-10-15T12:07:48;19.20;94.50
49222;DHT22;35047;37.588;-122.048;2022-10-15T12:20:41;19.30;95.60
49222;DHT22;35047;37.588;-122.048;2022-10-15T12:23:38;19.50;95.20
49222;DHT22;35047;37.588;-122.048;2022-10-15T12:26:27;19.40;95.10
49222;DHT22;35047;37.588;-122.048;2022-10-15T12:28:58;19.50;94.80
49222;DHT22;35047;37.588;-122.048;2022-10-15T12:31:32;19.40;94.40
49222;DHT22;35047;37.588;-122.048;2022-10-15T12:34:43;19.10;94.90
49222;DHT22;35047;37.588;-122.048;2022-10-15T12:37:17;19.00;95.30
49222;DHT22;35047;37.588;-122.048;2022-10-15T12:39:45;19.00;95.80
49222;DHT22;35047;37.588;-122.048;2022-10-15T12:42:41;19.00;96.00
49222;DHT22;35047;37.588;-122.048;2022-10-15T12:45:19;19.00;96.00
49222;DHT22;35047;37.588;-122.048;2022-10-15T12:50:34;19.30;95.70
49222;DHT22;35047;37.588;-122.048;2022-10-15T12:55:34;19.10;95.10
49222;DHT22;35047;37.588;-122.048;2022-10-15T12:58:03;19.20;95.10
49222;DHT22;35047;37.588;-122.048;2022-10-15T13:00:36;19.20;94.90
49222;DHT22;35047;37.588;-122.048;2022-10-15T13:03:37;19.00;94.70
49222;DHT22;35047;37.588;-122.048;2022-10-15T13:11:49;19.30;94.90
49222;DHT22;35047;37.588;-122.048;2022-10-15T13:14:38;19.20;94.80
49222;DHT22;35047;37.588;-122.048;2022-10-15T13:17:33;19.30;94.80
49222;DHT22;35047;37.588;-122.048;2022-10-15T13:20:06;19.20;94.40
49222;DHT22;35047;37.588;-122.048;2022-10-15T13:22:35;19.30;95.00
49222;DHT22;35047;37.588;-122.048;2022-10-15T13:25:02;19.30;94.20
49222;DHT22;35047;37.588;-122.048;2022-10-15T13:27:36;19.40;94.00
49222;DHT22;35047;37.588;-122.048;2022-10-15T13:30:11;19.30;94.90
49222;DHT22;35047;37.588;-122.048;2022-10-15T13:32:53;19.50;94.30
49222;DHT22;35047;37.588;-122.048;2022-10-15T13:35:28;19.50;93.60
49222;DHT22;35047;37.588;-122.048;2022-10-15T13:38:00;19.40;93.90
49222;DHT22;35047;37.588;-122.048;2022-10-15T13:40:29;19.50;94.00
49222;DHT22;35047;37.588;-122.048;2022-10-15T13:43:01;19.40;94.20
49222;DHT22;35047;37.588;-122.048;2022-10-15T13:45:28;19.30;93.60
49222;DHT22;35047;37.588;-122.048;2022-10-15T13:47:55;19.00;94.00
49222;DHT22;35047;37.588;-122.048;2022-10-15T13:50:33;18.80;94.40
49222;DHT22;35047;37.588;-122.048;2022-10-15T13:53:03;18.80;94.90
49222;DHT22;35047;37.588;-122.048;2022-10-15T13:55:35;18.90;94.60
49222;DHT22;35047;37.588;-122.048;2022-10-15T13:58:27;18.80;94.40
49222;DHT22;35047;37.588;-122.048;2022-10-15T14:01:13;18.90;94.00
49222;DHT22;35047;37.588;-122.048;2022-10-15T14:03:52;18.90;94.10
49222;DHT22;35047;37.588;-122.048;2022-10-15T14:06:26;18.80;93.70
49222;DHT22;35047;37.588;-122.048;2022-10-15T14:08:57;18.80;94.30
49222;DHT22;35047;37.588;-122.048;2022-10-15T14:11:25;18.90;94.20
49222;DHT22;35047;37.588;-122.048;2022-10-15T14:13:54;18.90;94.30
49222;DHT22;35047;37.588;-122.048;2022-10-15T14:16:26;18.90;94.30
49222;DHT22;35047;37.588;-122.048;2022-10-15T14:19:08;19.00;94.10
49222;DHT22;35047;37.588;-122.048;2022-10-15T14:21:36;18.80;93.30
49222;DHT22;35047;37.588;-122.048;2022-10-15T14:24:11;18.40;93.70
49222;DHT22;35047;37.588;-122.048;2022-10-15T14:26:40;18.00;94.60
49222;DHT22;35047;37.588;-122.048;2022-10-15T14:29:25;17.80;94.90
49222;DHT22;35047;37.588;-122.048;2022-10-15T14:31:52;17.60;95.30
49222;DHT22;35047;37.588;-122.048;2022-10-15T14:37:37;17.60;95.90
49222;DHT22;35047;37.588;-122.048;2022-10-15T14:40:17;17.50;95.40
49222;DHT22;35047;37.588;-122.048;2022-10-15T14:45:27;17.20;96.30
49222;DHT22;35047;37.588;-122.048;2022-10-15T14:48:14;17.30;96.90
49222;DHT22;35047;37.588;-122.048;2022-10-15T14:50:43;17.30;96.20
49222;DHT22;35047;37.588;-122.048;2022-10-15T14:53:19;17.30;96.50
49222;DHT22;35047;37.588;-122.048;2022-10-15T14:55:54;17.10;96.30
49222;DHT22;35047;37.588;-122.048;2022-10-15T14:58:23;17.10;97.10
49222;DHT22;35047;37.588;-122.048;2022-10-15T15:00:58;17.20;97.00
49222;DHT22;35047;37.588;-122.048;2022-10-15T15:03:34;17.20;96.70
49222;DHT22;35047;37.588;-122.048;2022-10-15T15:06:03;17.20;96.70
49222;DHT22;35047;37.588;-122.048;2022-10-15T15:08:30;17.00;96.90
49222;DHT22;35047;37.588;-122.048;2022-10-15T15:10:59;17.10;97.40
49222;DHT22;35047;37.588;-122.048;2022-10-15T15:13:29;17.30;97.10
49222;DHT22;35047;37.588;-122.048;2022-10-15T15:15:56;17.40;96.50
49222;DHT22;35047;37.588;-122.048;2022-10-15T15:18:23;17.60;96.80
49222;DHT22;35047;37.588;-122.048;2022-10-15T15:20:50;17.70;96.20
49222;DHT22;35047;37.588;-122.048;2022-10-15T15:23:21;17.60;95.90
49222;DHT22;35047;37.588;-122.048;2022-10-15T15:25:50;17.60;95.80
49222;DHT22;35047;37.588;-122.048;2022-10-15T15:28:19;17.60;95.70
49222;DHT22;35047;37.588;-122.048;2022-10-15T15:31:01;17.70;96.30
49222;DHT22;35047;37.588;-122.048;2022-10-15T15:33:32;17.70;95.70
49222;DHT22;35047;37.588;-122.048;2022-10-15T15:36:10;17.80;96.30
49222;DHT22;35047;37.588;-122.048;2022-10-15T15:38:37;17.70;95.80
49222;DHT22;35047;37.588;-122.048;2022-10-15T15:41:16;17.70;95.60
49222;DHT22;35047;37.588;-122.048;2022-10-15T15:43:43;17.60;96.20
49222;DHT22;35047;37.588;-122.048;2022-10-15T15:46:11;17.50;95.50
49222;DHT22;35047;37.588;-122.048;2022-10-15T15:48:38;17.50;96.10
49222;DHT22;35047;37.588;-122.048;2022-10-15T15:51:26;17.40;96.10
49222;DHT22;35047;37.588;-122.048;2022-10-15T15:53:54;17.40;96.10
49222;DHT22;35047;37.588;-122.048;2022-10-15T15:56:21;17.50;96.20
49222;DHT22;35047;37.588;-122.048;2022-10-15T15:58:48;17.60;96.70
49222;DHT22;35047;37.588;-122.048;2022-10-15T16:01:19;17.70;96.00
49222;DHT22;35047;37.588;-122.048;2022-10-15T16:03:46;17.90;96.10
49222;DHT22;35047;37.588;-122.048;2022-10-15T16:06:12;18.00;95.40
49222;DHT22;35047;37.588;-122.048;2022-10-15T16:08:39;18.00;95.20
49222;DHT22;35047;37.588;-122.048;2022-10-15T16:11:06;17.80;95.40
49222;DHT22;35047;37.588;-122.048;2022-10-15T16:13:33;17.60;96.30
49222;DHT22;35047;37.588;-122.048;2022-10-15T16:16:00;17.60;95.90
49222;DHT22;35047;37.588;-122.048;2022-10-15T16:18:26;17.50;96.50
49222;DHT22;35047;37.588;-122.048;2022-10-15T16:20:53;17.60;96.40
49222;DHT22;35047;37.588;-122.048;2022-10-15T16:23:20;17.60;96.00
49222;DHT22;35047;37.588;-122.048;2022-10-15T16:25:47;17.60;96.50
49222;DHT22;35047;37.588;-122.048;2022-10-15T16:28:13;17.70;96.00
49222;DHT22;35047;37.588;-122.048;2022-10-15T16:30:41;17.60;95.60
49222;DHT22;35047;37.588;-122.048;2022-10-15T16:33:08;17.60;95.90
49222;DHT22;35047;37.588;-122.048;2022-10-15T16:35:35;17.70;96.00
49222;DHT22;35047;37.588;-122.048;2022-10-15T16:38:02;17.80;95.90
49222;DHT22;35047;37.588;-122.048;2022-10-15T16:40:28;17.90;95.60
49222;DHT22;35047;37.588;-122.048;2022-10-15T16:42:55;18.00;95.20
49222;DHT22;35047;37.588;-122.048;2022-10-15T16:45:21;18.10;95.50
49222;DHT22;35047;37.588;-122.048;2022-10-15T16:47:48;18.30;95.10
49222;DHT22;35047;37.588;-122.048;2022-10-15T16:50:15;18.30;94.90
49222;DHT22;35047;37.588;-122.048;2022-10-15T16:52:42;18.40;94.20
49222;DHT22;35047;37.588;-122.048;2022-10-15T16:55:09;18.30;95.10